This is the latest recevied weather packets stored in our database for station/object K4AMF. If no packets are shown the sender has not sent any weather packets the latest 10 day(s).
| Time | Temp. | Humidity | Pressure | Rain* | Wind** | Luminosity | Snow |
|---|---|---|---|---|---|---|---|
| 1777576410 | 27.22° C | 74% | 1010.2 hPa | 0 mm | - | 249 W/m² | - |
| 1777576107 | 27.22° C | 74% | 1010.2 hPa | 0 mm | - | 271 W/m² | - |
| 1777573975 | 29.44° C | 65% | 1010.1 hPa | 0 mm | - | 203 W/m² | - |
| 1777573366 | 30° C | 63% | 1010.2 hPa | 0 mm | - | 524 W/m² | - |
| 1777573061 | 30° C | 64% | 1010.5 hPa | 0 mm | - | 746 W/m² | - |
| 1777571845 | 28.33° C | 70% | 1010.9 hPa | 0 mm | - | 441 W/m² | - |
| 1777571238 | 28.33° C | 69% | 1010.8 hPa | 0 mm | - | 118 W/m² | - |
| 1777569414 | 28.33° C | 68% | 1011.2 hPa | 0 mm | - | 219 W/m² | - |
| 1777565777 | 28.33° C | 71% | 1012 hPa | 0 mm | - | 293 W/m² | - |
| 1777565474 | 27.78° C | 71% | 1012.1 hPa | 0 mm | - | 884 W/m² | - |
| 1777565170 | 27.78° C | 71% | 1012.2 hPa | 0 mm | - | 514 W/m² | - |
| 1777564867 | 28.33° C | 69% | 1012.2 hPa | 0 mm | - | 571 W/m² | - |
| 1777564263 | 27.22° C | 74% | 1012.1 hPa | 0 mm | - | 492 W/m² | - |
| 1777563960 | 27.22° C | 75% | 1008.4 hPa | 0 mm | - | 602 W/m² | - |
| 1777563356 | 27.78° C | 73% | 1008.7 hPa | 0 mm | - | 741 W/m² | - |
| 1777563052 | 26.67° C | 75% | 1008.7 hPa | 0 mm | - | 897 W/m² | - |
| 1777562447 | 27.22° C | 76% | 1008.7 hPa | 0 mm | - | 283 W/m² | - |
| 1777561842 | 26.67° C | 76% | 1008.5 hPa | 0 mm | - | 790 W/m² | - |
| 1777561538 | 26.67° C | 78% | 1008.7 hPa | 0 mm | - | 949 W/m² | - |
| 1777560630 | 25.56° C | 81% | 1008.3 hPa | 0 mm | - | 797 W/m² | - |
| 1777559721 | 25.56° C | 82% | 1008.5 hPa | 0 mm | - | 655 W/m² | - |
| 1777559418 | 25.56° C | 82% | 1008.7 hPa | 0 mm | - | 296 W/m² | - |
| 1777558506 | 24.44° C | 84% | 1008.4 hPa | 0 mm | - | 151 W/m² | - |
| 1777557898 | 25° C | 84% | 1008.2 hPa | 0 mm | - | 188 W/m² | - |
| 1777557291 | 25° C | 84% | 1008.7 hPa | 0 mm | - | 228 W/m² | - |
* Rain latest hour (hover to see other rain measurements)
** Current wind speed in m/s (hover to see current wind gust speed)